FIMPVRMM

Guest
Details From FIMP - Sir Seewoosagur Ramgoolam Intl
To VRMM - Male Intl
Flight Number -
Tags Generated
Created
Modified
Stats Distance 1,750 nm / 3,241 km
Max Altitude 0 ft / 0 m
Waypoints 3
Social Downloads 0
Likes 0
Share VATSIM

Download

Looking for another format? Having issues loading an existing format? Contact us
Advertisement - Login to hide

Notes

Generated

Route

FIMP MLE20 VRMM

ID Type Via Altitude Latitude Longitude Leg Dist Tot Dist Heading (true) Name
O FIMP APT - 0 ft / 0 m -20.42332˚ 57.66925˚ - 0 nm - -
MLE20 FIX - 0 ft / 0 m 4.11308˚ 73.47040˚ 1743 nm 1743 nm 34° / 32° -
O VRMM APT - 0 ft / 0 m 4.20629˚ 73.52889˚ 6 nm 1749 nm 32° / 32° -

Altitude Profile

Advertisement - Login to hide

Weather


0- 5 10 15 20 25 30 35+ Temperature / ° C

Clouds and Precipitation
Forecast for 2018-05-22 12:00 UTC. Updated an hour ago

Ground ~20,000 ft ~40,000 ft Winds

FIMP

Details ICAO FIMP (MRU)
Name SIR SEEWOOSAGUR RAMGOOLAM INTL
Region Mauritius
Timezone Indian/Mauritius (UTC+4.0)
Stats Elevation 186 ft / 57 m (AMSL)
Location -20.430235° 57.683602°
Runways 1
Magnetic Variation 18.389° W

METAR

FIMP 221200Z 13012KT 9999 SCT016 26/19 Q1019

Decode

TAF

TAF FIMP 221115Z 2212/2318 13010G24KT 9999 SCT017 TEMPO 2216/2306 7000 -SHRA FEW010 BKN015 BKN050

Decode

Departure Runways

ID Width Length Bearing (true) Bearing (mag) Surface Threshold Offset Overrun Length
14 148 ft / 45 m 11,037 ft / 3,364 m 117.22° 135.61° Asphalt 1,082 ft / 330 m 200 ft / 61 m
32 148 ft / 45 m 11,037 ft / 3,364 m 297.21° 315.60° Asphalt 0 ft / 0 m 0 ft / 0 m

VRMM

Details ICAO VRMM (MLE)
Name MALE INTL
Region Maldives
Timezone Indian/Maldives (UTC+5.0)
Stats Elevation 6 ft / 2 m (AMSL)
Location 4.191832° 73.529128°
Runways 1
Magnetic Variation 2.801° W

METAR

VRMM 221200Z 21007KT 9999 -RA FEW017 FEW018CB BKN090 28/25 Q1007 CB SW TEMPO 4000 -TSRA

Decode

TAF

TAF VRMM 221100Z 2212/2318 23009KT 9000 FEW017TCU BKN110 BECMG 2212/2214 5000 -RA FEW017CB TEMPO 2214/2220 27015G28KT 3000 TSRA/SHRA SCT016CB

Decode

Destination Runways

ID Width Length Bearing (true) Bearing (mag) Surface Threshold Offset Overrun Length
18 148 ft / 45 m 10,556 ft / 3,218 m 179.06° 181.86° Asphalt 328 ft / 100 m 201 ft / 61 m
36 148 ft / 45 m 10,556 ft / 3,218 m 359.06° 1.86° Asphalt 952 ft / 290 m 238 ft / 73 m

Approach Navaids

Runway Type Ident Frequency Range Bearing (true) Bearing (mag) Slope Elevation
36 Localiser IML 108.70 MHz 18 nm / 33 km 359.58° 2.38° - 5 ft / 2 m (AMSL)
36 Glidescope IML 108.70 MHz 10 nm / 19 km 359.06° 1.86° 3.00° 5 ft / 2 m (AMSL)
36 DME IML 108.70 MHz 18 nm / 33 km - - - 22 ft / 7 m (AMSL)

Popular Alternatives